createdAt,value
2022-10-18T00:02:03.218Z,25.70
2022-10-18T00:04:33.835Z,25.13
2022-10-18T00:07:02.623Z,23.93
2022-10-18T00:09:33.490Z,24.27
2022-10-18T00:12:03.366Z,25.93
2022-10-18T00:14:32.094Z,28.03
2022-10-18T00:17:00.780Z,25.27
2022-10-18T00:19:29.608Z,27.50
2022-10-18T00:21:58.285Z,28.47
2022-10-18T00:24:26.952Z,30.00
2022-10-18T00:26:55.550Z,25.53
2022-10-18T00:29:53.970Z,28.03
2022-10-18T00:32:23.024Z,31.17
2022-10-18T00:34:51.749Z,28.47
2022-10-18T00:37:20.855Z,29.97
2022-10-18T00:39:49.619Z,28.73
2022-10-18T00:42:20.396Z,23.00
2022-10-18T00:44:52.071Z,25.83
2022-10-18T00:47:30.516Z,31.33
2022-10-18T00:49:58.991Z,28.37
2022-10-18T00:52:39.256Z,29.10
2022-10-18T00:55:09.717Z,30.33
2022-10-18T00:57:40.493Z,26.17
2022-10-18T01:00:10.129Z,35.43
2022-10-18T01:02:39.913Z,33.20
2022-10-18T01:05:09.541Z,29.30
2022-10-18T01:07:52.382Z,28.53
2022-10-18T01:10:40.485Z,29.37
2022-10-18T01:13:25.813Z,33.23
2022-10-18T01:16:25.519Z,27.63
2022-10-18T01:18:59.671Z,28.13
2022-10-18T01:21:36.911Z,28.47
2022-10-18T01:24:28.132Z,29.40
2022-10-18T01:27:20.601Z,32.73
2022-10-18T01:30:04.111Z,32.63
2022-10-18T01:32:35.690Z,36.43
2022-10-18T01:35:07.321Z,28.83
2022-10-18T01:37:37.606Z,29.30
2022-10-18T01:40:08.834Z,26.80
2022-10-18T01:42:37.445Z,28.83
2022-10-18T01:45:08.149Z,26.60
2022-10-18T01:47:37.219Z,27.63
2022-10-18T01:50:07.765Z,30.10
2022-10-18T01:52:36.435Z,31.53
2022-10-18T01:55:05.554Z,26.77
2022-10-18T01:58:07.148Z,24.93
2022-10-18T02:00:42.161Z,29.57
2022-10-18T02:03:25.545Z,23.83
2022-10-18T02:06:12.397Z,33.07
2022-10-18T02:08:49.936Z,29.90
2022-10-18T02:11:19.489Z,23.57
2022-10-18T02:13:51.024Z,24.07
2022-10-18T02:16:22.681Z,27.33
2022-10-18T02:18:59.937Z,26.43
2022-10-18T02:21:30.659Z,25.30
2022-10-18T02:24:02.309Z,24.33
2022-10-18T02:26:31.551Z,25.87
2022-10-18T02:29:00.562Z,27.47
2022-10-18T02:31:42.115Z,21.97
2022-10-18T02:34:13.669Z,24.10
2022-10-18T02:36:45.240Z,21.53
2022-10-18T02:39:16.791Z,24.83
2022-10-18T02:41:45.546Z,20.27
2022-10-18T02:44:16.904Z,21.13
2022-10-18T02:46:46.665Z,26.13
2022-10-18T02:49:15.315Z,21.60
2022-10-18T02:51:43.985Z,19.17
2022-10-18T02:54:12.646Z,25.17
2022-10-18T02:56:41.382Z,22.00
2022-10-18T02:59:10.093Z,17.70
2022-10-18T03:01:38.788Z,21.00
2022-10-18T03:04:07.554Z,16.30
2022-10-18T03:06:36.469Z,23.50
2022-10-18T03:09:06.901Z,23.47
2022-10-18T03:11:35.543Z,18.70
2022-10-18T03:14:04.208Z,21.97
2022-10-18T03:16:34.031Z,20.27
2022-10-18T03:19:02.643Z,24.80
2022-10-18T03:21:31.234Z,18.50
2022-10-18T03:23:59.931Z,23.17
2022-10-18T03:26:28.557Z,20.50
2022-10-18T03:28:57.367Z,20.53
2022-10-18T03:31:26.021Z,19.33
2022-10-18T03:33:54.634Z,19.57
2022-10-18T03:36:23.200Z,26.67
2022-10-18T03:38:51.885Z,18.13
2022-10-18T03:41:20.987Z,21.03
2022-10-18T03:43:51.084Z,23.23
2022-10-18T03:46:20.885Z,17.53
2022-10-18T03:48:49.449Z,19.03
2022-10-18T03:51:18.000Z,26.30
2022-10-18T03:53:46.595Z,28.83
2022-10-18T03:56:17.241Z,19.43
2022-10-18T03:58:45.739Z,19.13
2022-10-18T04:01:14.425Z,22.37
2022-10-18T04:03:43.077Z,29.83
2022-10-18T04:06:11.713Z,32.03
2022-10-18T04:08:40.398Z,28.57
2022-10-18T04:11:10.971Z,25.67
2022-10-18T04:13:39.734Z,29.13
2022-10-18T04:16:08.402Z,22.07
2022-10-18T04:18:37.076Z,26.00
2022-10-18T04:21:05.743Z,24.27
2022-10-18T04:23:37.881Z,21.50
2022-10-18T04:26:04.794Z,19.60
2022-10-18T04:28:34.446Z,24.37
2022-10-18T04:31:03.160Z,23.73
2022-10-18T04:33:31.683Z,26.27
2022-10-18T04:36:02.999Z,26.13
2022-10-18T04:38:31.635Z,20.87
2022-10-18T04:41:00.316Z,21.97
2022-10-18T04:43:28.988Z,25.67
2022-10-18T04:45:57.590Z,22.97
2022-10-18T04:48:26.249Z,23.73
2022-10-18T04:50:54.878Z,22.23
2022-10-18T04:53:23.448Z,20.43
2022-10-18T04:55:52.480Z,28.70
2022-10-18T04:58:21.222Z,29.00
2022-10-18T05:00:50.679Z,22.90
2022-10-18T05:03:19.533Z,21.53
2022-10-18T05:06:01.226Z,19.53
2022-10-18T05:08:18.554Z,25.77
2022-10-18T05:10:47.916Z,30.67
2022-10-18T05:13:18.064Z,32.27
2022-10-18T05:15:48.075Z,25.87
2022-10-18T05:18:16.662Z,29.20
2022-10-18T05:20:45.341Z,22.20
2022-10-18T05:23:14.013Z,27.07
2022-10-18T05:25:45.903Z,24.30
2022-10-18T05:28:38.234Z,23.77
2022-10-18T05:30:45.225Z,26.17
2022-10-18T05:33:13.804Z,23.77
2022-10-18T05:35:42.693Z,28.10
2022-10-18T05:38:11.344Z,24.93
2022-10-18T05:40:40.744Z,28.23
2022-10-18T05:43:09.406Z,44.03
2022-10-18T05:45:38.039Z,38.57
2022-10-18T05:48:07.902Z,32.17
2022-10-18T05:50:39.541Z,34.77
2022-10-18T05:53:11.976Z,27.00
2022-10-18T05:55:37.190Z,30.70
2022-10-18T05:58:05.940Z,30.30
2022-10-18T06:00:34.661Z,35.67
2022-10-18T06:03:03.220Z,34.60
2022-10-18T06:05:31.904Z,41.50
2022-10-18T06:08:00.592Z,45.13
2022-10-18T06:10:29.179Z,43.23
2022-10-18T06:12:57.794Z,36.40
2022-10-18T06:15:26.361Z,45.60
2022-10-18T06:17:55.106Z,34.43
2022-10-18T06:20:23.698Z,38.13
2022-10-18T06:22:55.497Z,37.67
2022-10-18T06:25:24.296Z,37.20
2022-10-18T06:27:52.984Z,30.63
2022-10-18T06:30:21.575Z,31.77
2022-10-18T06:32:53.024Z,30.23
2022-10-18T06:35:21.635Z,39.07
2022-10-18T06:37:50.228Z,26.03
2022-10-18T06:40:20.037Z,33.97
2022-10-18T06:43:00.018Z,33.97
2022-10-18T06:45:20.605Z,30.17
2022-10-18T06:47:52.009Z,30.30
2022-10-18T06:50:20.580Z,36.27
2022-10-18T06:52:50.718Z,37.07
2022-10-18T06:55:19.383Z,31.60
2022-10-18T06:57:48.139Z,31.00
2022-10-18T07:00:16.916Z,31.20
2022-10-18T07:02:45.484Z,32.40
2022-10-18T07:05:14.159Z,24.40
2022-10-18T07:07:42.860Z,21.50
2022-10-18T07:10:13.097Z,35.13
2022-10-18T07:12:41.910Z,36.80
2022-10-18T07:15:11.097Z,28.60
2022-10-18T07:17:39.731Z,35.33
2022-10-18T07:20:08.724Z,35.63
2022-10-18T07:22:38.272Z,42.10
2022-10-18T07:25:07.506Z,38.10
2022-10-18T07:27:43.840Z,34.13
2022-10-18T07:30:15.647Z,33.03
2022-10-18T07:32:44.338Z,33.43
2022-10-18T07:35:13.150Z,38.40
2022-10-18T07:37:41.803Z,33.43
2022-10-18T07:40:12.474Z,31.40
2022-10-18T07:42:41.113Z,45.93
2022-10-18T07:45:11.910Z,38.07
2022-10-18T07:47:42.298Z,43.63
2022-10-18T07:50:16.637Z,32.07
2022-10-18T07:52:46.266Z,39.13
2022-10-18T07:55:15.154Z,33.50
2022-10-18T07:57:43.915Z,31.35
2022-10-18T08:00:14.351Z,35.03
2022-10-18T08:05:55.169Z,45.37
2022-10-18T08:08:29.154Z,28.20
2022-10-18T08:10:59.446Z,29.87
2022-10-18T08:13:28.174Z,25.40
2022-10-18T08:16:01.686Z,28.73
2022-10-18T08:18:31.955Z,24.92
2022-10-18T08:21:05.275Z,27.07
2022-10-18T08:23:34.371Z,24.92
2022-10-18T08:26:05.228Z,30.40
2022-10-18T08:28:35.804Z,29.87
2022-10-18T08:31:09.923Z,23.70
2022-10-18T08:33:39.655Z,27.17
2022-10-18T08:36:10.897Z,30.57
2022-10-18T08:38:41.428Z,34.08
2022-10-18T08:41:40.135Z,29.75
2022-10-18T08:44:24.161Z,31.12
2022-10-18T08:46:55.811Z,23.25
2022-10-18T08:49:47.083Z,22.20
2022-10-18T08:52:21.855Z,22.82
2022-10-18T08:55:09.194Z,24.15
2022-10-18T08:57:39.438Z,27.50
2022-10-18T09:00:12.579Z,34.58
2022-10-18T09:03:01.056Z,35.78
2022-10-18T09:05:36.183Z,29.72
2022-10-18T09:08:19.819Z,23.22
2022-10-18T09:11:10.991Z,19.35
2022-10-18T09:14:06.234Z,26.20
2022-10-18T09:16:40.828Z,18.90
2022-10-18T09:19:15.337Z,20.60
2022-10-18T09:21:56.154Z,23.57
2022-10-18T09:24:30.452Z,24.12
2022-10-18T09:27:02.271Z,20.27
2022-10-18T09:29:54.702Z,21.10
2022-10-18T09:32:41.533Z,18.50
2022-10-18T09:35:25.438Z,16.60
2022-10-18T09:37:59.896Z,17.15
2022-10-18T09:40:34.446Z,22.02
2022-10-18T09:43:14.986Z,17.85
2022-10-18T09:45:46.487Z,18.02
2022-10-18T09:48:24.297Z,20.55
2022-10-18T09:51:13.411Z,18.52
2022-10-18T09:54:04.935Z,20.23
2022-10-18T09:56:39.449Z,16.40
2022-10-18T09:59:11.406Z,18.20
2022-10-18T10:01:41.919Z,16.67
2022-10-18T10:04:12.444Z,10.45
2022-10-18T10:06:44.176Z,14.53
2022-10-18T10:09:18.951Z,23.30
2022-10-18T10:11:53.471Z,15.25
2022-10-18T10:14:28.287Z,17.07
2022-10-18T10:17:05.991Z,9.63
2022-10-18T10:19:40.526Z,12.88
2022-10-18T10:22:15.665Z,11.63
2022-10-18T10:28:49.750Z,9.55
2022-10-18T10:31:30.153Z,15.28
2022-10-18T10:34:17.788Z,7.75
2022-10-18T10:36:55.241Z,7.37
2022-10-18T10:39:28.513Z,11.35
2022-10-18T10:42:01.897Z,5.92
2022-10-18T10:44:33.486Z,8.98
2022-10-18T10:47:02.203Z,6.87
2022-10-18T10:49:42.617Z,7.85
2022-10-18T10:52:27.265Z,5.87
2022-10-18T10:55:05.882Z,10.05
2022-10-18T10:57:28.958Z,12.23
2022-10-18T11:00:00.347Z,8.88
2022-10-18T11:02:36.793Z,11.65
2022-10-18T11:05:27.104Z,11.30
2022-10-18T11:08:04.006Z,7.10
2022-10-18T11:10:38.681Z,5.25
2022-10-18T11:13:26.500Z,6.83
2022-10-18T11:15:59.453Z,6.80
2022-10-18T11:18:48.165Z,4.03
2022-10-18T11:21:19.923Z,4.58
2022-10-18T11:23:48.620Z,8.80
2022-10-18T11:26:29.236Z,13.40
2022-10-18T11:29:23.865Z,7.47
2022-10-18T11:31:55.495Z,7.55
2022-10-18T11:34:29.855Z,6.55
2022-10-18T11:37:26.287Z,6.83
2022-10-18T11:40:00.089Z,13.43
2022-10-18T11:42:43.769Z,8.48
2022-10-18T11:45:18.192Z,3.50
2022-10-18T11:47:52.315Z,9.80
2022-10-18T11:50:32.318Z,6.03
2022-10-18T11:56:24.615Z,3.83
2022-10-18T11:59:15.393Z,5.50
2022-10-18T12:02:04.538Z,8.23
2022-10-18T12:04:53.059Z,4.37
2022-10-18T12:07:27.731Z,3.20
2022-10-18T12:10:03.410Z,4.80
2022-10-18T12:12:56.076Z,2.30
2022-10-18T12:15:28.973Z,6.22
2022-10-18T12:18:03.470Z,3.95
2022-10-18T12:20:38.046Z,2.58
2022-10-18T12:23:21.025Z,1.40
2022-10-18T12:25:57.989Z,2.95
2022-10-18T12:31:54.315Z,4.95
2022-10-18T12:34:27.557Z,3.90
2022-10-18T12:37:19.098Z,5.70
2022-10-18T12:40:11.465Z,1.98
2022-10-18T12:42:39.906Z,3.15
2022-10-18T12:45:17.075Z,5.92
2022-10-18T12:47:50.105Z,2.70
2022-10-18T12:50:35.131Z,2.65
2022-10-18T12:53:07.036Z,9.00
2022-10-18T12:55:38.918Z,2.45
2022-10-18T12:58:13.848Z,6.62
2022-10-18T13:00:46.044Z,2.98
2022-10-18T13:03:21.584Z,4.30
2022-10-18T13:05:56.557Z,4.28
2022-10-18T13:08:34.690Z,2.10
2022-10-18T13:11:12.126Z,3.22
2022-10-18T13:13:50.950Z,4.37
2022-10-18T13:16:32.794Z,5.65
2022-10-18T13:19:23.214Z,4.28
2022-10-18T13:22:00.504Z,2.52
2022-10-18T13:24:47.110Z,4.05
2022-10-18T13:27:42.414Z,2.05
2022-10-18T13:30:13.070Z,6.22
2022-10-18T13:33:13.491Z,2.17
2022-10-18T13:35:48.939Z,3.30
2022-10-18T13:38:41.542Z,3.55
2022-10-18T13:41:16.486Z,2.27
2022-10-18T13:43:52.968Z,6.87
2022-10-18T13:46:29.544Z,5.72
2022-10-18T13:49:38.092Z,4.28
2022-10-18T13:52:28.952Z,1.90
2022-10-18T13:55:22.857Z,4.40
2022-10-18T13:58:05.639Z,1.40
2022-10-18T14:00:56.754Z,2.72
2022-10-18T14:03:58.710Z,5.80
2022-10-18T14:06:30.263Z,2.58
2022-10-18T14:09:26.400Z,2.55
2022-10-18T14:11:55.461Z,4.75
2022-10-18T14:14:38.365Z,3.22
2022-10-18T14:17:18.628Z,2.67
2022-10-18T14:20:06.228Z,14.78
2022-10-18T14:22:41.187Z,7.55
2022-10-18T14:25:35.622Z,5.58
2022-10-18T14:28:27.410Z,5.78
2022-10-18T14:31:09.174Z,8.68
2022-10-18T14:33:41.537Z,3.70
2022-10-18T14:36:16.020Z,4.33
2022-10-18T14:38:53.899Z,10.18
2022-10-18T14:41:28.516Z,8.40
2022-10-18T14:44:17.576Z,9.33
2022-10-18T14:46:51.780Z,7.05
2022-10-18T14:49:22.502Z,4.53
2022-10-18T14:51:56.992Z,6.85
2022-10-18T14:54:36.393Z,8.58
2022-10-18T14:57:08.534Z,5.87
2022-10-18T14:59:46.328Z,5.60
2022-10-18T15:02:24.237Z,12.18
2022-10-18T15:05:09.873Z,12.33
2022-10-18T15:07:49.462Z,9.43
2022-10-18T15:10:27.549Z,10.13
2022-10-18T15:13:10.929Z,10.30
2022-10-18T15:15:36.031Z,11.33
2022-10-18T15:18:08.787Z,15.53
2022-10-18T15:20:43.543Z,20.00
2022-10-18T15:23:27.126Z,20.17
2022-10-18T15:26:05.047Z,27.90
2022-10-18T15:28:36.708Z,16.02
2022-10-18T15:31:06.992Z,15.93
2022-10-18T15:33:35.916Z,17.30
2022-10-18T15:36:17.683Z,11.88
2022-10-18T15:38:49.194Z,24.35
2022-10-18T15:41:42.394Z,27.80
2022-10-18T15:44:20.015Z,20.52
2022-10-18T15:46:49.734Z,15.43
2022-10-18T15:49:54.582Z,11.28
2022-10-18T15:52:27.906Z,16.37
2022-10-18T15:54:57.357Z,10.90
2022-10-18T15:57:29.124Z,15.48
2022-10-18T16:00:02.776Z,20.95
2022-10-18T16:02:32.015Z,14.80
2022-10-18T16:05:03.577Z,15.10
2022-10-18T16:07:32.478Z,27.05
2022-10-18T16:10:01.436Z,25.05
2022-10-18T16:12:29.981Z,17.05
2022-10-18T16:15:05.134Z,19.25
2022-10-18T16:18:09.266Z,26.37
2022-10-18T16:47:49.482Z,22.65
2022-10-18T16:50:22.050Z,26.05
2022-10-18T16:52:51.266Z,28.55
2022-10-18T16:55:27.793Z,26.57
2022-10-18T16:58:09.052Z,34.45
2022-10-18T17:00:43.283Z,33.20
2022-10-18T17:03:16.450Z,31.35
2022-10-18T17:05:48.092Z,33.83
2022-10-18T17:08:23.128Z,32.42
2022-10-18T17:10:55.304Z,32.78
2022-10-18T17:13:25.276Z,34.67
2022-10-18T17:15:55.682Z,40.43
2022-10-18T17:18:32.959Z,26.30
2022-10-18T17:21:03.595Z,35.75
2022-10-18T17:23:39.008Z,40.40
2022-10-18T17:26:45.561Z,40.48
2022-10-18T17:35:26.495Z,50.17
2022-10-18T17:37:55.275Z,37.55
2022-10-18T17:40:25.626Z,29.30
2022-10-18T17:46:20.597Z,31.62
2022-10-18T17:52:07.153Z,38.78
2022-10-18T17:54:36.041Z,28.62
2022-10-18T18:00:39.244Z,26.50
2022-10-18T18:03:06.424Z,38.60
2022-10-18T18:05:42.440Z,32.65
2022-10-18T18:12:16.593Z,40.33
2022-10-18T18:14:51.763Z,28.70
2022-10-18T18:20:32.399Z,44.08
2022-10-18T18:23:26.411Z,36.33
2022-10-18T18:26:03.972Z,43.65
2022-10-18T18:28:33.172Z,35.80
2022-10-18T19:24:06.138Z,28.93
2022-10-18T19:26:42.610Z,39.20
2022-10-18T19:29:14.629Z,35.17
2022-10-18T19:31:43.874Z,36.30
2022-10-18T19:34:14.350Z,39.00
2022-10-18T19:36:45.224Z,26.37
2022-10-18T19:39:18.425Z,30.57
2022-10-18T19:41:50.765Z,28.17
2022-10-18T19:44:20.458Z,32.13
2022-10-18T19:46:50.296Z,29.70
2022-10-18T19:49:19.081Z,35.90
2022-10-18T19:51:47.950Z,27.70
2022-10-18T20:11:25.861Z,26.47
2022-10-18T20:13:55.119Z,33.20
2022-10-18T20:16:28.400Z,30.67
2022-10-18T21:04:38.803Z,17.97
2022-10-18T21:07:08.296Z,19.87
2022-10-18T21:09:36.881Z,19.57
2022-10-18T21:12:07.285Z,16.63
2022-10-18T21:14:35.858Z,17.13
2022-10-18T21:17:04.549Z,22.80
2022-10-18T21:19:33.344Z,16.37
2022-10-18T21:24:59.208Z,12.60
2022-10-18T21:27:27.927Z,14.57
2022-10-18T21:29:56.538Z,15.17
2022-10-18T21:32:25.225Z,14.57
2022-10-18T21:34:53.820Z,10.10
2022-10-18T21:37:22.381Z,17.70
2022-10-18T21:39:51.031Z,13.97
2022-10-18T21:42:22.150Z,11.43
2022-10-18T21:44:53.255Z,9.93
2022-10-18T21:47:21.830Z,11.80
2022-10-18T21:49:54.082Z,8.67
2022-10-18T21:52:22.692Z,14.50
2022-10-18T21:54:51.217Z,9.27
2022-10-18T21:57:21.206Z,9.67
2022-10-18T21:59:49.877Z,9.73
2022-10-18T22:02:18.384Z,9.40
2022-10-18T22:04:47.033Z,10.10
2022-10-18T22:07:15.652Z,7.37
2022-10-18T22:09:44.208Z,15.57
2022-10-18T22:12:12.855Z,7.53
2022-10-18T22:14:41.440Z,11.77
2022-10-18T22:17:10.011Z,12.77
2022-10-18T22:19:38.783Z,11.43
2022-10-18T22:22:07.356Z,10.27
2022-10-18T22:27:04.777Z,10.83
2022-10-18T22:29:33.443Z,11.17
2022-10-18T22:32:02.031Z,11.93
2022-10-18T22:34:30.706Z,13.03
2022-10-18T22:36:59.292Z,11.27
2022-10-18T22:39:27.786Z,13.63
2022-10-18T22:41:57.367Z,15.90
2022-10-18T22:44:30.511Z,16.73
2022-10-18T22:46:59.070Z,12.23
2022-10-18T22:49:27.689Z,13.20
2022-10-18T22:51:56.298Z,15.47
2022-10-18T22:54:24.913Z,14.70
2022-10-18T22:56:53.502Z,12.20
2022-10-18T22:59:22.173Z,18.90
2022-10-18T23:01:50.832Z,17.03
2022-10-18T23:04:19.486Z,16.57
2022-10-18T23:06:48.115Z,11.20
2022-10-18T23:09:16.633Z,25.20
2022-10-18T23:11:47.087Z,18.13
2022-10-18T23:14:15.658Z,14.93
2022-10-18T23:16:44.872Z,19.63
2022-10-18T23:19:16.048Z,17.93
2022-10-18T23:21:44.680Z,16.60
2022-10-18T23:24:13.366Z,23.53
2022-10-18T23:26:42.001Z,22.07
2022-10-18T23:29:10.812Z,18.20
2022-10-18T23:31:40.993Z,17.63
2022-10-18T23:34:10.550Z,19.50
2022-10-18T23:36:39.247Z,20.20
2022-10-18T23:39:07.872Z,21.53
2022-10-18T23:41:38.755Z,18.30
2022-10-18T23:44:08.570Z,16.23
2022-10-18T23:46:37.211Z,15.63
2022-10-18T23:49:05.957Z,21.67
2022-10-18T23:51:34.542Z,18.40
2022-10-18T23:54:03.121Z,24.23
2022-10-18T23:56:31.727Z,22.00
2022-10-18T23:59:00.279Z,20.20
